Time;durP1;ratioP1;P1;durP2;ratioP2;P2;SDS_P1;SDS_P2;PMS_P1;PMS_P2;Temp;Humidity;BMP_temperature;BMP_pressure;BME280_temperature;BME280_humidity;BME280_pressure;Samples;Min_cycle;Max_cycle;Signal;HPM_P1;HPM_P2
2022/11/21 00:01:41;;;;;;;4.10;2.00;;;4.70;99.90;;;3.56;100.00;96592.19;5068882;28;20406;-76
2022/11/21 00:04:07;;;;;;;6.97;2.10;;;4.70;99.90;;;3.58;100.00;96590.16;5069015;28;20488;-76
2022/11/21 00:06:34;;;;;;;2.95;1.80;;;4.70;99.90;;;3.63;100.00;96579.00;5069572;28;20881;-77
2022/11/21 00:09:00;;;;;;;5.72;2.10;;;4.70;99.90;;;3.65;100.00;96582.19;5069759;28;20870;-76
2022/11/21 00:11:26;;;;;;;6.95;1.70;;;4.80;99.90;;;3.74;100.00;96581.63;5069683;28;20406;-76
2022/11/21 00:13:52;;;;;;;5.18;2.03;;;4.80;99.90;;;3.63;100.00;96565.91;5068828;28;20449;-76
2022/11/21 00:16:18;;;;;;;4.55;1.70;;;4.80;99.90;;;3.59;100.00;96567.41;5069766;28;20399;-76
2022/11/21 00:18:44;;;;;;;4.70;2.00;;;4.80;99.90;;;3.54;100.00;96568.06;5069643;28;20411;-76
2022/11/21 00:21:12;;;;;;;2.63;1.80;;;4.70;99.90;;;3.52;100.00;96543.97;5069602;28;20414;-77
2022/11/21 00:23:40;;;;;;;4.80;1.77;;;4.70;99.90;;;3.48;100.00;96551.44;5069010;28;20430;-76
2022/11/21 00:26:07;;;;;;;3.53;1.52;;;4.70;99.90;;;3.48;100.00;96548.84;5070008;28;20808;-75
2022/11/21 00:28:33;;;;;;;1.70;1.55;;;4.70;99.90;;;3.55;100.00;96547.91;5069536;28;20388;-75
2022/11/21 00:30:59;;;;;;;3.00;1.70;;;4.70;99.90;;;3.52;100.00;96540.53;5069612;28;20486;-75
2022/11/21 00:33:25;;;;;;;2.00;1.60;;;4.70;99.90;;;3.45;100.00;96528.38;5068967;28;20525;-75
2022/11/21 00:35:51;;;;;;;3.27;1.73;;;4.70;99.90;;;3.37;100.00;96523.47;5051584;28;20423;-75
2022/11/21 00:38:17;;;;;;;3.50;2.10;;;4.60;99.90;;;3.33;100.00;96529.38;5069320;28;20494;-76
2022/11/21 00:40:44;;;;;;;4.45;1.70;;;4.50;99.90;;;3.33;100.00;96532.78;5069545;28;20399;-75
2022/11/21 00:43:10;;;;;;;4.07;1.93;;;4.60;99.90;;;3.24;100.00;96515.81;5068570;28;20441;-77
2022/11/21 00:45:37;;;;;;;4.00;1.60;;;4.50;99.90;;;3.22;100.00;96519.72;5069546;28;20403;-77
2022/11/21 00:48:03;;;;;;;3.40;1.60;;;4.40;99.90;;;3.17;100.00;96504.66;5069417;28;20391;-75
2022/11/21 00:50:29;;;;;;;2.70;1.60;;;4.40;99.90;;;3.09;100.00;96516.25;5069406;28;20407;-75
2022/11/21 00:52:55;;;;;;;3.55;1.70;;;4.40;99.90;;;3.06;100.00;96515.91;5069126;28;20435;-75
2022/11/21 00:55:21;;;;;;;1.63;1.50;;;4.30;99.90;;;3.06;100.00;96508.88;5069593;28;20404;-75
2022/11/21 00:57:49;;;;;;;5.35;1.60;;;4.30;99.90;;;3.00;100.00;96508.97;5069290;28;20446;-75
2022/11/21 01:00:16;;;;;;;3.03;1.60;;;4.20;99.90;;;2.90;100.00;96506.09;5069269;28;20414;-75
2022/11/21 01:02:42;;;;;;;4.10;1.75;;;4.10;99.90;;;2.84;100.00;96518.25;5068765;28;20506;-75
2022/11/21 01:05:09;;;;;;;2.50;1.67;;;4.10;99.90;;;2.87;100.00;96519.63;5069180;28;20818;-75
2022/11/21 01:07:35;;;;;;;3.15;1.75;;;4.10;99.90;;;2.95;100.00;96508.84;5069151;28;20398;-75
2022/11/21 01:10:01;;;;;;;3.90;1.73;;;4.20;99.90;;;2.96;100.00;96515.66;5069191;28;20400;-75
2022/11/21 01:12:27;;;;;;;3.15;1.73;;;4.20;99.90;;;3.04;100.00;96533.66;5071075;28;20427;-75
2022/11/21 01:14:54;;;;;;;7.93;2.10;;;4.20;99.90;;;3.02;100.00;96525.22;5072237;28;20928;-75
2022/11/21 01:17:20;;;;;;;4.43;1.90;;;4.20;99.90;;;3.11;100.00;96522.06;5072668;28;20418;-76
2022/11/21 01:19:46;;;;;;;4.20;1.90;;;4.30;99.90;;;3.13;100.00;96519.22;5072922;28;20967;-75
2022/11/21 01:22:11;;;;;;;3.20;2.13;;;4.30;99.90;;;3.11;100.00;96522.06;5072795;28;20404;-75
2022/11/21 01:24:37;;;;;;;3.25;2.15;;;4.30;99.90;;;3.12;100.00;96515.03;5072026;28;20411;-75
2022/11/21 01:27:03;;;;;;;6.03;2.00;;;4.40;99.90;;;3.19;100.00;96505.25;5072733;28;20438;-76
2022/11/21 01:29:29;;;;;;;5.13;2.05;;;4.40;99.90;;;3.15;100.00;96516.41;5072706;28;20404;-75
2022/11/21 01:31:56;;;;;;;6.50;2.05;;;4.40;99.90;;;3.21;100.00;96518.09;5072447;28;20464;-76
2022/11/21 01:34:22;;;;;;;6.80;2.20;;;4.40;99.90;;;3.17;100.00;96519.56;5071753;28;20486;-76
2022/11/21 01:36:48;;;;;;;7.78;2.25;;;4.30;99.90;;;3.06;100.00;96526.38;5072049;28;20490;-77
2022/11/21 01:39:14;;;;;;;10.33;2.60;;;4.30;99.90;;;3.08;100.00;96512.03;5072459;28;20773;-76
2022/11/21 01:41:43;;;;;;;5.70;2.20;;;4.30;99.90;;;3.05;100.00;96514.31;5072389;28;20403;-77
2022/11/21 01:44:18;;;;;;;9.23;2.30;;;4.20;99.90;;;3.03;100.00;96508.50;5071648;28;20427;-77
2022/11/21 01:46:44;;;;;;;5.00;2.05;;;4.20;99.90;;;3.05;100.00;96512.50;5072206;28;20490;-76
2022/11/21 01:49:16;;;;;;;8.18;2.08;;;4.20;99.90;;;3.04;100.00;96499.66;5072488;28;20404;-77
2022/11/21 01:51:48;;;;;;;9.35;2.22;;;4.20;99.90;;;2.97;100.00;96493.75;5072263;28;20758;-77
2022/11/21 01:54:22;;;;;;;8.63;2.45;;;4.20;99.90;;;2.97;100.00;96488.50;5071459;28;20410;-77
2022/11/21 01:56:54;;;;;;;8.93;2.50;;;4.20;99.90;;;2.94;100.00;96487.13;5072228;28;20395;-76
2022/11/21 01:59:26;;;;;;;9.10;2.53;;;4.20;99.90;;;2.96;100.00;96479.88;5072111;28;21113;-76
2022/11/21 02:01:54;;;;;;;9.18;2.90;;;4.20;99.90;;;2.96;100.00;96476.47;5072073;28;20427;-76
2022/11/21 02:04:27;;;;;;;8.95;2.53;;;4.20;99.90;;;2.95;100.00;96474.84;5071383;28;20408;-76
2022/11/21 02:06:53;;;;;;;10.52;2.78;;;4.20;99.90;;;2.96;100.00;96481.69;5072143;28;20440;-76
2022/11/21 02:09:20;;;;;;;5.80;2.50;;;4.20;99.90;;;2.93;100.00;96477.69;5071895;28;20765;-76
2022/11/21 02:11:51;;;;;;;9.20;2.80;;;4.20;99.90;;;2.94;100.00;96476.69;5071931;28;20400;-77
2022/11/21 02:14:17;;;;;;;6.90;2.92;;;4.20;99.90;;;2.95;100.00;96474.84;5071027;28;20399;-77
2022/11/21 02:16:44;;;;;;;8.35;2.97;;;4.20;99.90;;;2.96;100.00;96473.84;5071747;28;20406;-77
2022/11/21 02:19:19;;;;;;;9.07;3.03;;;4.20;99.90;;;3.01;100.00;96476.56;5071778;28;20822;-76
2022/11/21 02:21:54;;;;;;;12.27;3.40;;;4.20;99.90;;;3.09;100.00;96477.03;5071727;28;20765;-78
2022/11/21 02:24:29;;;;;;;8.55;2.80;;;4.30;99.90;;;3.10;100.00;96470.78;5070042;28;20754;-77
2022/11/21 02:26:57;;;;;;;4.10;2.40;;;4.30;99.90;;;3.15;100.00;96472.75;5071609;28;20418;-77
2022/11/21 02:29:22;;;;;;;5.00;2.20;;;4.40;99.90;;;3.17;100.00;96467.25;5071590;28;20392;-77
2022/11/21 02:31:48;;;;;;;8.63;2.83;;;4.40;99.90;;;3.13;100.00;96466.13;5071545;28;20490;-77
2022/11/21 02:34:14;;;;;;;4.20;2.00;;;4.40;99.90;;;3.21;100.00;96460.56;5070429;28;20924;-76
2022/11/21 02:36:44;;;;;;;8.73;2.10;;;4.40;99.90;;;3.08;100.00;96474.69;5071447;28;20395;-77
2022/11/21 02:39:16;;;;;;;7.28;2.00;;;4.30;99.90;;;2.99;100.00;96473.41;5071333;28;20768;-76
2022/11/21 02:41:53;;;;;;;9.18;2.28;;;4.20;99.90;;;2.94;100.00;96476.69;5053347;28;20416;-78
2022/11/21 02:44:28;;;;;;;5.75;2.20;;;4.20;99.90;;;2.87;100.00;96478.59;5052551;28;20490;-78
2022/11/21 02:46:54;;;;;;;6.47;2.30;;;4.10;99.90;;;2.84;100.00;96473.03;5071220;28;20387;-77
2022/11/21 02:49:30;;;;;;;4.05;2.15;;;4.00;99.90;;;2.82;100.00;96473.25;5071271;28;20458;-78
2022/11/21 02:51:56;;;;;;;8.63;2.90;;;4.00;99.90;;;2.81;100.00;96476.88;5071021;28;20406;-77
2022/11/21 02:54:22;;;;;;;10.25;2.50;;;4.00;99.90;;;2.80;100.00;96456.19;5070323;28;20404;-77
2022/11/21 02:56:48;;;;;;;4.93;2.00;;;4.00;99.90;;;2.93;100.00;96461.25;5071147;28;20788;-77
2022/11/21 02:59:14;;;;;;;4.17;2.00;;;4.10;99.90;;;2.89;100.00;96444.41;5070860;28;20562;-77
2022/11/21 03:01:41;;;;;;;4.50;1.98;;;4.10;99.90;;;2.89;100.00;96444.41;5070946;28;20405;-78
2022/11/21 03:04:07;;;;;;;3.67;1.83;;;4.10;99.90;;;2.94;100.00;96444.50;5070354;28;20404;-77
2022/11/21 03:06:32;;;;;;;3.35;2.00;;;4.10;99.90;;;2.92;100.00;96434.31;5071186;28;20907;-77
2022/11/21 03:08:58;;;;;;;4.68;1.83;;;4.10;99.90;;;2.84;100.00;96444.28;5070940;28;20731;-77
2022/11/21 03:11:24;;;;;;;3.07;1.80;;;4.10;99.90;;;2.82;100.00;96446.31;5052901;28;20411;-77
2022/11/21 03:13:50;;;;;;;2.95;1.80;;;4.00;99.90;;;2.82;100.00;96435.88;5069928;28;20407;-77
2022/11/21 03:16:16;;;;;;;4.53;1.88;;;4.00;99.90;;;2.77;100.00;96433.94;5070555;28;20403;-77
2022/11/21 03:18:43;;;;;;;3.13;1.80;;;4.00;99.90;;;2.70;100.00;96420.19;5070425;28;20469;-77
2022/11/21 03:21:09;;;;;;;3.42;1.83;;;3.90;99.90;;;2.69;100.00;96429.03;5070578;28;20478;-76
2022/11/21 03:23:35;;;;;;;3.65;1.58;;;3.90;99.90;;;2.79;100.00;96423.25;5069965;28;21269;-76
2022/11/21 03:26:01;;;;;;;3.28;1.90;;;4.00;99.90;;;2.66;100.00;96419.03;5070838;28;20407;-77
2022/11/21 03:28:27;;;;;;;2.30;1.50;;;3.90;99.90;;;2.70;100.00;96425.41;5070649;28;20404;-76
2022/11/21 03:30:52;;;;;;;1.83;1.65;;;3.90;99.90;;;2.65;100.00;96438.34;5070477;28;20457;-77
2022/11/21 03:33:18;;;;;;;3.05;1.65;;;3.90;99.90;;;2.64;100.00;96436.72;5069659;28;20446;-77
2022/11/21 03:35:47;;;;;;;3.83;1.90;;;3.80;99.90;;;2.65;100.00;96436.50;5070476;28;20396;-77
2022/11/21 03:38:12;;;;;;;3.20;1.60;;;3.90;99.90;;;2.67;100.00;96429.25;5102134;22;20428;-73
2022/11/21 03:40:38;;;;;;;2.43;1.80;;;3.90;99.90;;;2.80;100.00;96430.06;5109606;28;20439;-73
2022/11/21 03:43:05;;;;;;;2.38;1.65;;;3.90;99.90;;;2.78;100.00;96427.69;5109255;28;20484;-73
2022/11/21 03:45:31;;;;;;;3.00;1.77;;;4.00;99.90;;;2.77;100.00;96431.34;5111057;28;20766;-73
2022/11/21 03:47:57;;;;;;;3.95;1.80;;;4.00;99.90;;;2.74;100.00;96434.38;5110717;27;20400;-73
2022/11/21 03:50:22;;;;;;;4.97;1.80;;;3.90;99.90;;;2.71;100.00;96435.63;5110652;28;20480;-73
2022/11/21 03:52:50;;;;;;;2.45;1.65;;;3.90;99.90;;;2.78;100.00;96437.34;5109762;28;20854;-73
2022/11/21 03:55:16;;;;;;;2.80;1.90;;;4.00;99.90;;;2.79;100.00;96436.31;5110544;28;20404;-74
2022/11/21 03:57:41;;;;;;;2.20;2.00;;;4.00;99.90;;;2.80;100.00;96433.47;5110390;28;20419;-73
2022/11/21 04:00:09;;;;;;;4.23;1.80;;;4.00;99.90;;;2.84;100.00;96437.25;5110484;28;20465;-74
2022/11/21 04:02:35;;;;;;;4.10;1.88;;;4.10;99.90;;;2.90;100.00;96446.00;5110217;28;20400;-74
2022/11/21 04:05:01;;;;;;;2.88;1.88;;;4.10;99.90;;;2.92;100.00;96443.97;5109756;28;20400;-74
2022/11/21 04:07:28;;;;;;;3.95;1.90;;;4.10;99.90;;;2.94;100.00;96442.69;5110365;28;20397;-74
2022/11/21 04:09:56;;;;;;;2.95;1.90;;;4.20;99.90;;;3.00;100.00;96447.03;5110450;28;20408;-74
2022/11/21 04:12:21;;;;;;;3.30;2.03;;;4.20;99.90;;;2.99;100.00;96437.59;5110432;28;20411;-73
2022/11/21 04:14:47;;;;;;;3.83;1.80;;;4.20;99.90;;;3.05;100.00;96439.31;5109493;28;20428;-73
2022/11/21 04:17:13;;;;;;;2.33;2.00;;;4.30;99.90;;;3.03;100.00;96441.34;5108957;28;20412;-72
2022/11/21 04:19:39;;;;;;;3.13;1.83;;;4.30;99.90;;;3.03;100.00;96430.09;5108900;28;20469;-73
2022/11/21 04:22:05;;;;;;;3.83;1.80;;;4.30;99.90;;;2.99;100.00;96434.19;5110225;28;20512;-74
2022/11/21 04:24:31;;;;;;;4.15;2.20;;;4.20;99.90;;;2.97;100.00;96431.00;5109381;28;20408;-73
2022/11/21 04:26:58;;;;;;;2.40;2.10;;;4.20;99.90;;;2.97;100.00;96425.78;5110046;28;20404;-72
2022/11/21 04:29:24;;;;;;;4.75;2.10;;;4.20;99.90;;;2.95;100.00;96430.44;5109851;28;20395;-73
2022/11/21 04:31:50;;;;;;;5.80;2.28;;;4.20;99.90;;;2.93;100.00;96437.72;5110140;28;20399;-73
2022/11/21 04:34:15;;;;;;;6.57;2.57;;;4.20;99.90;;;2.97;100.00;96429.19;5109188;28;20514;-73
2022/11/21 04:36:41;;;;;;;5.50;2.20;;;4.20;99.90;;;2.98;100.00;96422.94;5110095;28;20400;-73
2022/11/21 04:39:07;;;;;;;2.85;2.08;;;4.20;99.90;;;2.96;100.00;96434.63;5109874;28;20453;-73
2022/11/21 04:41:33;;;;;;;6.45;2.60;;;4.20;99.90;;;2.99;100.00;96429.75;5111089;28;20396;-74
2022/11/21 04:44:01;;;;;;;6.32;2.38;;;4.20;99.90;;;3.07;100.00;96429.44;5129636;27;20397;-74
2022/11/21 04:46:26;;;;;;;5.15;2.85;;;4.30;99.90;;;3.06;100.00;96421.81;5117955;28;20773;-74
2022/11/21 04:48:52;;;;;;;4.88;2.42;;;4.30;99.90;;;3.04;100.00;96431.69;5104768;27;20408;-75
2022/11/21 04:51:18;;;;;;;5.60;2.60;;;4.30;99.90;;;3.00;100.00;96427.94;5105422;27;20411;-74
2022/11/21 04:53:44;;;;;;;6.10;2.47;;;4.20;99.90;;;3.01;100.00;96432.94;5107265;28;20412;-75
2022/11/21 04:56:13;;;;;;;7.70;2.42;;;4.30;99.90;;;3.12;100.00;96428.75;5107193;28;20920;-75
2022/11/21 04:58:39;;;;;;;4.50;2.60;;;4.30;99.90;;;2.99;100.00;96431.59;5112917;28;20420;-75
2022/11/21 05:01:08;;;;;;;6.95;2.92;;;4.20;99.90;;;2.93;100.00;96422.81;5113861;28;20408;-74
2022/11/21 05:03:34;;;;;;;9.82;3.10;;;4.20;99.90;;;2.87;100.00;96426.31;5104094;28;20436;-74
2022/11/21 05:06:00;;;;;;;8.68;3.08;;;4.10;99.90;;;2.84;100.00;96426.78;5110345;28;20943;-74
2022/11/21 05:08:25;;;;;;;7.85;2.75;;;4.10;99.90;;;2.83;100.00;96427.00;5107379;28;20414;-74
2022/11/21 05:13:36;;;;;;;9.65;3.35;;;4.00;99.90;;;2.76;100.00;96431.56;5106762;28;20427;-73
2022/11/21 05:16:02;;;;;;;8.13;3.50;;;4.00;99.90;;;2.72;100.00;96418.91;5108108;28;20879;-76
2022/11/21 05:18:29;;;;;;;11.80;3.50;;;4.00;99.90;;;2.77;100.00;96422.69;5107139;28;20416;-76
2022/11/21 05:20:55;;;;;;;7.47;3.08;;;4.00;99.90;;;2.72;100.00;96445.06;5102348;28;20440;-75
2022/11/21 05:23:21;;;;;;;10.50;3.13;;;3.90;99.90;;;2.70;100.00;96441.88;5103001;28;20452;-76
2022/11/21 05:25:47;;;;;;;7.75;2.83;;;3.90;99.90;;;2.66;100.00;96438.13;5102205;28;20569;-75
2022/11/21 05:28:13;;;;;;;9.15;3.40;;;3.90;99.90;;;2.68;100.00;96433.47;5102550;28;20407;-73
2022/11/21 05:30:39;;;;;;;8.23;3.13;;;3.90;99.90;;;2.69;100.00;96429.84;5103528;28;20507;-73
2022/11/21 05:33:05;;;;;;;6.90;3.03;;;3.90;99.90;;;2.70;100.00;96434.03;5110120;28;20720;-74
2022/11/21 05:35:33;;;;;;;8.57;3.20;;;3.90;99.90;;;2.68;100.00;96433.47;5110039;28;20913;-74
2022/11/21 05:37:59;;;;;;;8.30;3.38;;;3.90;99.90;;;2.66;100.00;96443.34;5112800;28;20465;-73
2022/11/21 05:40:25;;;;;;;8.17;3.67;;;3.90;99.90;;;2.65;100.00;96443.56;5113004;28;20723;-74
2022/11/21 05:45:35;;;;;;;8.27;4.03;;;3.90;99.90;;;2.72;100.00;96450.28;5110726;28;20434;-74
2022/11/21 05:48:01;;;;;;;9.40;3.90;;;4.00;99.90;;;2.77;100.00;96443.59;5121185;27;20405;-74
2022/11/21 05:50:27;;;;;;;8.95;3.22;;;4.00;99.90;;;2.79;100.00;96444.94;5109803;28;20399;-74
2022/11/21 05:52:54;;;;;;;7.75;3.33;;;4.00;99.90;;;2.83;100.00;96468.81;5103903;28;20461;-74
2022/11/21 05:55:20;;;;;;;10.10;3.80;;;4.10;99.90;;;2.87;100.00;96454.28;5111971;28;20803;-75
2022/11/21 05:57:46;;;;;;;10.73;4.05;;;4.10;99.90;;;2.92;100.00;96459.66;5112070;28;20479;-75
2022/11/21 06:00:13;;;;;;;11.10;4.20;;;4.10;99.90;;;2.92;100.00;96457.84;5111929;28;20410;-74
2022/11/21 06:05:24;;;;;;;9.70;3.40;;;4.20;99.90;;;2.99;100.00;96445.44;5092253;28;20862;-74
2022/11/21 06:07:49;;;;;;;11.30;3.65;;;4.20;99.90;;;3.02;100.00;96446.78;5092099;28;20394;-74
2022/11/21 06:10:17;;;;;;;10.80;3.30;;;4.20;99.90;;;3.09;100.00;96453.50;5090641;28;20814;-74
2022/11/21 06:12:43;;;;;;;6.20;2.80;;;4.30;99.90;;;3.18;100.00;96453.19;5091523;28;20394;-74
2022/11/21 06:15:09;;;;;;;8.90;2.90;;;4.30;99.90;;;3.14;100.00;96454.66;5092315;28;20489;-74
2022/11/21 06:17:35;;;;;;;9.25;3.10;;;4.40;99.90;;;3.15;100.00;96451.81;5091909;28;20409;-74
2022/11/21 06:20:01;;;;;;;6.80;2.90;;;4.40;99.90;;;3.12;100.00;96449.66;5091862;28;20413;-74
2022/11/21 06:22:27;;;;;;;8.07;3.13;;;4.30;99.90;;;3.12;100.00;96449.66;5092020;28;20801;-85
2022/11/21 06:24:53;;;;;;;10.02;3.08;;;4.40;99.90;;;3.09;100.00;96450.09;5092096;28;20405;-82
2022/11/21 06:27:20;;;;;;;9.57;3.63;;;4.30;99.90;;;3.06;100.00;96453.97;5092636;28;20459;-80
2022/11/21 06:29:46;;;;;;;14.85;3.78;;;4.30;99.90;;;3.03;100.00;96454.41;5091970;28;20386;-74
2022/11/21 06:32:12;;;;;;;15.73;3.70;;;4.30;99.90;;;3.02;100.00;96458.06;5090410;28;20402;-73
2022/11/21 06:34:38;;;;;;;12.47;3.67;;;4.30;99.90;;;3.02;100.00;96452.03;5090546;28;20444;-74
2022/11/21 06:37:04;;;;;;;10.15;3.30;;;4.20;99.90;;;3.00;100.00;96457.50;5091706;28;20414;-74
2022/11/21 06:39:30;;;;;;;12.20;3.88;;;4.20;99.90;;;2.98;100.00;96449.09;5090180;28;20513;-73
2022/11/21 06:41:56;;;;;;;14.00;4.03;;;4.20;99.90;;;2.99;100.00;96452.50;5090004;28;20475;-73
2022/11/21 06:44:23;;;;;;;9.95;4.07;;;4.20;99.90;;;2.97;100.00;96454.53;5090675;28;20397;-72
2022/11/21 06:46:49;;;;;;;14.70;4.10;;;4.20;99.90;;;2.98;100.00;96461.34;5091473;28;20416;-73
2022/11/21 06:49:15;;;;;;;10.30;4.15;;;4.20;99.90;;;2.96;100.00;96466.00;5091377;28;20838;-74
2022/11/21 06:51:41;;;;;;;15.00;4.40;;;4.20;99.90;;;2.95;100.00;96465.19;5091210;28;20480;-74
2022/11/21 06:54:06;;;;;;;18.63;5.10;;;4.20;99.90;;;2.90;100.00;96467.69;5090460;28;20406;-74
2022/11/21 06:56:32;;;;;;;13.13;5.00;;;4.10;99.90;;;2.88;100.00;96477.56;5091348;28;20405;-74
2022/11/21 06:58:58;;;;;;;9.00;4.25;;;4.10;99.90;;;2.80;100.00;96475.28;5091060;28;20449;-74
2022/11/21 07:01:26;;;;;;;16.35;5.35;;;4.00;99.90;;;2.76;100.00;96473.34;5091176;28;20483;-73
2022/11/21 07:03:52;;;;;;;11.55;4.50;;;4.00;99.90;;;2.69;100.00;96481.28;5090290;28;20921;-74
2022/11/21 07:06:18;;;;;;;14.23;4.90;;;4.00;99.90;;;2.64;100.00;96473.31;5091087;28;20520;-73
2022/11/21 07:08:44;;;;;;;10.05;3.90;;;3.90;99.90;;;2.58;100.00;96467.16;5100240;28;20545;-73
2022/11/21 07:11:12;;;;;;;11.40;4.20;;;3.90;99.90;;;2.54;100.00;96471.25;5107874;28;20495;-73
2022/11/21 07:13:38;;;;;;;17.70;4.63;;;3.80;99.90;;;2.53;100.00;96471.47;5110164;28;20396;-74
2022/11/21 07:16:06;;;;;;;18.75;5.00;;;3.80;99.90;;;2.43;100.00;96473.81;5108545;28;20422;-73
2022/11/21 07:18:34;;;;;;;20.70;5.95;;;3.70;99.90;;;2.42;100.00;96467.78;5109101;28;20405;-73
2022/11/21 07:21:03;;;;;;;19.70;5.47;;;3.70;99.90;;;2.29;100.00;96460.94;5110784;28;20404;-73
2022/11/21 07:23:30;;;;;;;14.82;4.93;;;3.60;99.90;;;2.25;100.00;96462.41;5110317;28;20443;-73
2022/11/21 07:25:59;;;;;;;29.52;6.28;;;3.60;99.90;;;2.23;100.00;96467.06;5111328;28;20396;-73
2022/11/21 07:28:25;;;;;;;16.17;5.50;;;3.50;99.90;;;2.26;100.00;96468.41;5110870;28;20492;-74
2022/11/21 07:30:54;;;;;;;22.52;7.15;;;3.60;99.90;;;2.26;100.00;96455.34;5110904;28;20402;-74
2022/11/21 07:33:20;;;;;;;18.03;5.73;;;3.60;99.90;;;2.17;100.00;96465.34;5099263;28;21377;-74
2022/11/21 07:35:47;;;;;;;28.67;7.70;;;3.50;99.90;;;2.18;100.00;96468.75;5108612;27;20407;-74
2022/11/21 07:38:13;;;;;;;25.73;7.20;;;3.50;99.90;;;2.18;100.00;96460.91;5107873;28;20423;-73
2022/11/21 07:40:39;;;;;;;19.92;6.03;;;3.50;99.90;;;2.12;100.00;96459.94;5131017;27;20394;-74
2022/11/21 07:43:05;;;;;;;28.40;7.13;;;3.50;99.90;;;2.10;100.00;96459.41;5130167;27;21243;-73
2022/11/21 07:45:32;;;;;;;29.05;8.15;;;3.40;99.90;;;2.16;100.00;96458.50;5130943;27;20399;-74
2022/11/21 07:47:59;;;;;;;27.27;7.90;;;3.50;99.90;;;2.14;100.00;96457.94;5131015;27;20395;-73
2022/11/21 07:50:25;;;;;;;21.73;7.13;;;3.40;99.90;;;2.10;100.00;96458.59;5129781;27;20435;-73
2022/11/21 07:52:56;;;;;;;23.73;8.05;;;3.40;99.90;;;2.17;100.00;96459.31;5129988;27;20395;-75
2022/11/21 07:55:23;;;;;;;24.30;8.27;;;3.40;99.90;;;2.15;100.00;96462.13;5106062;27;20412;-73
2022/11/21 07:57:57;;;;;;;29.52;9.05;;;3.40;99.90;;;2.18;100.00;96459.06;5106462;28;20913;-75
2022/11/21 08:00:23;;;;;;;23.50;8.10;;;3.50;99.90;;;2.22;100.00;96470.69;5108377;28;20411;-74
2022/11/21 08:02:49;;;;;;;21.80;7.53;;;3.50;99.90;;;2.25;100.00;96472.06;5106122;28;20419;-74
2022/11/21 08:05:15;;;;;;;25.48;7.95;;;3.50;99.90;;;2.30;100.00;96469.56;5111432;28;20739;-75
2022/11/21 08:07:41;;;;;;;24.98;8.95;;;3.60;99.90;;;2.36;100.00;96467.88;5109950;28;20411;-76
2022/11/21 08:10:08;;;;;;;26.52;8.38;;;3.60;99.90;;;2.42;100.00;96472.22;5110159;28;20479;-76
2022/11/21 08:12:34;;;;;;;27.50;8.38;;;3.70;99.90;;;2.46;100.00;96465.53;5105706;28;20400;-75
2022/11/21 08:15:00;;;;;;;19.17;7.65;;;3.70;99.90;;;2.48;100.00;96459.06;5107324;28;20430;-75
2022/11/21 08:17:26;;;;;;;25.58;8.18;;;3.70;99.90;;;2.50;100.00;96462.25;5109817;28;20735;-75
2022/11/21 08:19:52;;;;;;;32.67;8.65;;;3.80;99.90;;;2.55;100.00;96465.03;5108730;28;20763;-75
2022/11/21 08:22:18;;;;;;;33.28;8.30;;;3.80;99.90;;;2.60;100.00;96454.69;5107479;28;20426;-75
2022/11/21 08:24:44;;;;;;;25.50;7.20;;;3.90;99.90;;;2.66;100.00;96453.00;5108646;28;20392;-73
2022/11/21 08:27:11;;;;;;;22.73;7.30;;;3.90;99.90;;;2.72;100.00;96441.63;5107714;28;20877;-74
2022/11/21 08:29:37;;;;;;;23.10;6.75;;;3.90;99.90;;;2.77;100.00;96441.78;5104411;28;21004;-75
2022/11/21 08:32:04;;;;;;;23.60;7.47;;;4.00;99.90;;;2.84;100.00;96446.91;5105180;28;20491;-74
2022/11/21 08:34:31;;;;;;;21.10;6.73;;;4.10;99.90;;;2.86;100.00;96440.41;5108039;28;20812;-74
2022/11/21 08:36:58;;;;;;;30.23;7.78;;;4.10;99.90;;;2.92;100.00;96447.38;5108004;28;20508;-74
2022/11/21 08:39:24;;;;;;;17.98;6.70;;;4.10;99.90;;;2.95;100.00;96443.50;5099860;28;20445;-74
2022/11/21 08:42:02;;;;;;;21.30;6.60;;;4.20;99.90;;;2.98;100.00;96449.09;5107932;28;20921;-75
2022/11/21 08:44:30;;;;;;;23.92;6.20;;;4.20;99.90;;;3.03;100.00;96440.53;5103798;28;20463;-72
2022/11/21 08:46:56;;;;;;;15.73;5.50;;;4.20;99.90;;;3.10;100.00;96441.22;5105804;28;20489;-73
2022/11/21 08:49:22;;;;;;;19.88;5.50;;;4.30;99.90;;;3.15;100.00;96441.38;5106756;28;20479;-76
2022/11/21 08:51:48;;;;;;;24.58;5.72;;;4.30;99.90;;;3.27;100.00;96441.34;5109566;28;20430;-73
2022/11/21 08:54:14;;;;;;;18.27;4.95;;;4.40;99.90;;;3.46;100.00;96432.34;5108364;28;20400;-74
2022/11/21 08:59:25;;;;;;;23.48;4.95;;;4.60;99.90;;;3.43;100.00;96432.81;5096550;22;20425;-74
2022/11/21 09:01:52;;;;;;;19.23;4.68;;;4.60;99.90;;;3.51;100.00;96435.09;5065529;28;20710;-74
2022/11/21 09:04:18;;;;;;;14.88;4.35;;;4.70;99.90;;;3.57;100.00;96444.63;5081846;28;20518;-73
2022/11/21 09:06:44;;;;;;;13.27;4.30;;;4.70;99.90;;;3.67;100.00;96429.16;5068176;28;20442;-74
2022/11/21 09:09:10;;;;;;;15.60;4.25;;;4.80;99.90;;;3.87;100.00;96426.94;5069985;28;20406;-75
2022/11/21 09:11:36;;;;;;;17.38;4.43;;;5.00;99.90;;;3.99;100.00;96423.47;5061865;28;20489;-76
2022/11/21 09:19:33;;;;;;;17.85;3.50;;;5.40;99.90;;;4.55;100.00;96418.25;5069169;28;20571;-74
2022/11/21 09:21:59;;;;;;;17.85;3.60;;;5.60;99.90;;;5.00;100.00;96415.56;5066750;28;20503;-74
2022/11/21 09:24:25;;;;;;;14.88;3.05;;;6.10;99.90;;;5.36;100.00;96416.06;5051961;28;20411;-74
2022/11/21 09:26:51;;;;;;;14.88;3.28;;;6.40;99.90;;;5.89;100.00;96418.09;5069390;28;20410;-75
2022/11/21 09:29:17;;;;;;;8.07;2.40;;;6.90;99.90;;;5.96;100.00;96417.91;5067520;28;20909;-75
2022/11/21 09:31:44;;;;;;;11.52;2.30;;;7.20;99.90;;;6.24;100.00;96427.44;5062083;28;20400;-75
2022/11/21 09:34:10;;;;;;;11.25;2.20;;;7.40;99.90;;;6.38;100.00;96421.56;5061154;28;20400;-75
2022/11/21 09:36:38;;;;;;;8.45;2.33;;;7.50;99.90;;;6.55;100.00;96424.06;5061038;28;20400;-76
2022/11/21 09:39:04;;;;;;;5.95;1.90;;;7.60;99.90;;;7.10;100.00;96415.84;5082927;22;20436;-80
2022/11/21 09:41:51;;;;;;;8.45;2.20;;;7.90;99.90;;;6.73;100.00;96421.09;5089913;28;20413;-77
2022/11/21 09:44:41;;;;;;;6.38;1.95;;;7.80;99.90;;;6.56;100.00;96429.06;5083446;28;20960;-75
2022/11/21 09:47:21;;;;;;;10.23;2.58;;;7.60;99.90;;;6.86;100.00;96417.25;5083781;28;20388;-76
2022/11/21 09:49:54;;;;;;;9.95;2.10;;;7.60;99.90;;;7.07;100.00;96411.09;5092283;28;20546;-78
2022/11/21 09:52:29;;;;;;;10.63;2.77;;;8.00;99.90;;;7.55;100.00;96407.44;5087726;28;20483;-76
2022/11/21 09:55:00;;;;;;;7.13;1.98;;;8.40;99.90;;;7.88;100.00;96405.50;5090843;28;20397;-75
2022/11/21 09:57:26;;;;;;;8.10;2.42;;;8.90;99.90;;;8.31;100.00;96401.72;5091882;28;20409;-76
2022/11/21 09:59:52;;;;;;;8.70;2.00;;;9.50;99.90;;;9.11;100.00;96394.91;5091211;28;20413;-76
2022/11/21 10:02:21;;;;;;;7.40;2.10;;;10.10;99.90;;;9.89;100.00;96384.69;5090680;28;20871;-78
2022/11/21 10:04:49;;;;;;;7.40;1.80;;;10.80;99.90;;;9.99;100.00;96372.22;5089285;28;20406;-78
2022/11/21 10:07:25;;;;;;;8.20;2.00;;;11.10;99.90;;;10.46;100.00;96376.22;5090560;28;20406;-77
2022/11/21 10:10:18;;;;;;;9.70;2.20;;;11.60;99.90;;;11.02;100.00;96363.34;5091807;28;20398;-76
2022/11/21 10:13:05;;;;;;;5.88;1.83;;;12.00;99.90;;;11.56;100.00;96357.78;5077261;28;20433;-76
2022/11/21 10:15:56;;;;;;;7.95;1.88;;;12.70;99.90;;;12.38;100.00;96353.06;5091610;28;20546;-77
2022/11/21 10:19:00;;;;;;;9.00;2.40;;;13.40;99.90;;;12.60;100.00;96341.06;5091977;28;20494;-76
2022/11/21 10:21:51;;;;;;;5.83;1.80;;;13.50;99.90;;;12.41;100.00;96341.84;5077057;28;20409;-78
2022/11/21 10:24:39;;;;;;;6.03;1.80;;;13.60;99.90;;;12.13;100.00;96344.66;5089385;28;20460;-76
2022/11/21 10:27:13;;;;;;;6.43;1.50;;;13.00;99.90;;;11.74;100.00;96327.13;5082027;28;20405;-76
2022/11/21 10:29:46;;;;;;;7.47;1.65;;;12.80;99.90;;;11.33;100.00;96321.47;5090237;28;20420;-76
2022/11/21 10:32:21;;;;;;;6.53;1.77;;;12.20;99.90;;;11.91;100.00;96316.03;5091219;28;20401;-80
2022/11/21 10:34:50;;;;;;;7.03;1.88;;;12.70;99.90;;;11.76;100.00;96322.31;5090882;28;20409;-78
2022/11/21 10:37:29;;;;;;;5.07;1.65;;;12.80;99.90;;;11.08;100.00;96324.38;5091004;28;20406;-79
2022/11/21 10:40:09;;;;;;;5.57;1.70;;;12.10;99.90;;;10.61;100.00;96322.38;5090994;28;20442;-77
2022/11/21 10:42:39;;;;;;;5.85;1.77;;;11.70;99.90;;;10.58;100.00;96322.97;5091242;28;20406;-77